Terminal Aerodrome Forecast
Issued by NWS

Home | Current Version | Previous Version | Text Only | Print | Product List | Glossary On
Versions: 1 2 3 4 5 6 7 8 9 10 11 12
568
FTUS43 KEAX 211726
TAFMKC
TAF
KMKC 211726Z 2118/2218 20007KT P6SM SKC
     FM220400 20007KT P6SM SKC WS020/22045KT
     FM221400 23008KT P6SM FEW250=

USA.gov is the U.S. government's official web portal to all federal, state and local government web resources and services.